Maumee, Ohio
Current Conditions -  °F | °C
As of 9:52 AM on Thursday 30 Oct 2014 (Local Time) from KTOL Reporting Station
Clear Clear  
Wind Chill: 39°   Ceiling: Unl
Heat Index: 39°   Visibility: 10mi
Dew Point: 35°   Wind: 3mph
Humidity: 86%   Direction: 240°WSW
Pressure: 30.16"   Gusts: NA
Location:  41.56°N, 83.65°W
Report Text: KTOL 301352Z 24003KT 10SM CLR 04/02 A3016 RMK AO2 SLP220 T00390017
Loading
Personal Weather Stations






























Interactive Weather Map
Tropical Storm Tracking
New forecast layout! Learn more

10-Day Weather Forecast

Advertisements
Track Severe Weather on mobile